Time;durP1;ratioP1;P1;durP2;ratioP2;P2;SDS_P1;SDS_P2;PMS_P1;PMS_P2;Temp;Humidity;BMP_temperature;BMP_pressure;BME280_temperature;BME280_humidity;BME280_pressure;Samples;Min_cycle;Max_cycle;Signal;HPM_P1;HPM_P2
2023/04/29 00:00:49;;;;;;;64.60;61.13;;;;;;;12.20;91.75;97791.81;4965690;28;20461;-75
2023/04/29 00:03:16;;;;;;;64.28;60.65;;;;;;;12.19;92.21;97795.59;4989946;28;20102;-75
2023/04/29 00:05:41;;;;;;;62.00;58.65;;;;;;;12.25;91.76;97794.53;4953091;28;20041;-77
2023/04/29 00:08:07;;;;;;;61.47;58.00;;;;;;;12.15;92.67;97794.50;4933649;28;20034;-76
2023/04/29 00:10:32;;;;;;;60.17;56.88;;;;;;;12.21;91.87;97801.53;4952078;28;20026;-76
2023/04/29 00:12:57;;;;;;;60.55;57.25;;;;;;;12.23;92.16;97785.88;4971249;28;20117;-76
2023/04/29 00:15:23;;;;;;;61.10;57.80;;;;;;;12.31;91.99;97792.66;4968345;28;20516;-75
2023/04/29 00:17:49;;;;;;;63.05;59.78;;;;;;;12.18;91.73;97787.75;4971197;28;20045;-74
2023/04/29 00:20:15;;;;;;;61.42;58.22;;;;;;;12.10;91.96;97785.56;4978175;28;20068;-76
2023/04/29 00:22:40;;;;;;;61.13;57.75;;;;;;;11.90;92.74;97790.88;4954991;28;20165;-76
2023/04/29 00:25:06;;;;;;;60.10;57.00;;;;;;;12.04;92.95;97803.59;4940764;28;20086;-76
2023/04/29 00:27:32;;;;;;;62.22;58.92;;;;;;;11.95;92.77;97786.28;4940398;28;20150;-76
2023/04/29 00:29:57;;;;;;;60.65;57.45;;;;;;;11.99;92.64;97795.50;4965742;28;20085;-77
2023/04/29 00:32:22;;;;;;;61.00;57.60;;;;;;;12.09;92.21;97800.16;4932604;28;20030;-77
2023/04/29 00:34:48;;;;;;;61.60;58.20;;;;;;;11.99;91.89;97795.50;4952845;28;20030;-77
2023/04/29 00:37:14;;;;;;;64.35;60.85;;;;;;;12.00;92.05;97797.13;4939882;28;20532;-77
2023/04/29 00:39:39;;;;;;;62.08;58.88;;;;;;;12.01;92.16;97793.38;4942603;28;20493;-77
2023/04/29 00:42:04;;;;;;;60.75;57.60;;;;;;;12.04;91.49;97789.31;4954693;28;20034;-77
2023/04/29 00:44:30;;;;;;;61.45;58.25;;;;;;;12.11;90.93;97801.47;4934819;28;20034;-77
2023/04/29 00:46:56;;;;;;;60.80;57.50;;;;;;;12.10;90.67;97785.56;4948240;28;20165;-77
2023/04/29 00:49:21;;;;;;;61.13;57.83;;;;;;;12.15;90.44;97794.50;4985701;28;20049;-77
2023/04/29 00:51:47;;;;;;;62.35;58.75;;;;;;;11.83;92.09;97793.81;4954808;28;20382;-77
2023/04/29 00:54:12;;;;;;;62.08;58.58;;;;;;;12.07;91.37;97802.28;4950995;28;20066;-76
2023/04/29 00:56:42;;;;;;;62.65;59.05;;;;;;;11.94;91.83;97803.59;4966064;28;20085;-77
2023/04/29 00:59:09;;;;;;;62.70;59.00;;;;;;;11.90;92.25;97807.88;4952351;28;20393;-77
2023/04/29 01:01:35;;;;;;;61.70;58.28;;;;;;;11.85;92.43;97799.75;4961719;28;20026;-77
2023/04/29 01:04:01;;;;;;;62.83;59.38;;;;;;;11.88;92.12;97799.22;4935713;28;20122;-75
2023/04/29 01:06:56;;;;;;;65.90;62.20;;;;;;;11.94;92.04;97808.97;4939944;28;20107;-77
2023/04/29 01:09:37;;;;;;;63.33;59.92;;;;;;;11.87;92.40;97803.00;4905345;28;20178;-77
2023/04/29 01:12:18;;;;;;;63.42;60.13;;;;;;;12.11;91.42;97804.19;4950550;28;20469;-77
2023/04/29 01:15:07;;;;;;;66.55;63.03;;;;;;;12.16;91.24;97801.50;4992751;28;20034;-74
2023/04/29 01:17:40;;;;;;;66.10;62.50;;;;;;;12.01;91.79;97814.13;4954187;28;20042;-75
2023/04/29 01:20:06;;;;;;;62.50;58.80;;;;;;;11.97;92.04;97803.03;4937039;28;20569;-75
2023/04/29 01:22:31;;;;;;;62.45;59.03;;;;;;;12.17;91.61;97803.16;4954249;28;20091;-74
2023/04/29 01:24:57;;;;;;;64.78;61.08;;;;;;;12.03;91.53;97796.59;4961428;28;20046;-74
2023/04/29 01:27:35;;;;;;;63.10;59.53;;;;;;;12.12;90.97;97805.00;4947407;28;20035;-75
2023/04/29 01:30:09;;;;;;;;;;;;;;;12.12;91.36;97800.41;4989696;28;20073;-75
2023/04/29 01:32:42;;;;;;;64.47;61.10;;;;;;;12.10;90.94;97797.19;4969813;28;19960;-75
2023/04/29 01:35:22;;;;;;;64.13;60.63;;;;;;;12.06;90.95;97796.09;4952741;28;20042;-75
2023/04/29 01:38:08;;;;;;;65.20;61.38;;;;;;;11.87;91.63;97803.00;4936981;28;20042;-75
2023/04/29 01:40:39;;;;;;;64.03;60.38;;;;;;;11.94;91.97;97798.19;4953713;28;20112;-75
2023/04/29 01:43:14;;;;;;;69.22;65.22;;;;;;;11.84;92.27;97797.31;4938698;28;20026;-77
2023/04/29 01:45:44;;;;;;;65.78;61.88;;;;;;;11.90;91.95;97802.50;4947456;28;20124;-77
2023/04/29 01:48:11;;;;;;;64.80;60.97;;;;;;;11.91;91.71;97782.50;4947427;28;20042;-77
2023/04/29 01:50:36;;;;;;;66.20;62.20;;;;;;;11.73;93.03;97797.28;4959902;28;20030;-76
2023/04/29 01:53:10;;;;;;;64.43;60.72;;;;;;;11.92;91.86;97789.53;4962758;28;20033;-76
2023/04/29 01:55:35;;;;;;;64.68;61.20;;;;;;;11.86;92.82;97790.56;4952600;28;20035;-74
2023/04/29 01:58:21;;;;;;;67.27;63.37;;;;;;;11.75;92.65;97791.59;4958532;28;20073;-75
2023/04/29 02:00:59;;;;;;;68.88;64.88;;;;;;;11.91;92.61;97804.09;4935787;28;20301;-75
2023/04/29 02:03:26;;;;;;;66.63;62.78;;;;;;;11.97;92.22;97803.03;4975593;28;20117;-75
2023/04/29 02:05:54;;;;;;;68.80;64.63;;;;;;;11.90;92.48;97789.00;4964032;28;20066;-75
2023/04/29 02:08:19;;;;;;;67.80;63.70;;;;;;;11.79;92.92;97804.31;4970157;28;20066;-76
2023/04/29 02:10:56;;;;;;;63.40;59.75;;;;;;;11.83;92.71;97804.59;4968596;28;20037;-75
2023/04/29 02:13:38;;;;;;;63.33;59.83;;;;;;;11.93;91.63;97801.13;4926030;29;20050;-75
2023/04/29 02:16:11;;;;;;;66.45;61.97;;;;;;;11.77;92.49;97801.06;4963970;28;20493;-75
2023/04/29 02:18:41;;;;;;;67.15;63.22;;;;;;;11.68;93.23;97807.22;4950689;28;20030;-76
2023/04/29 02:21:07;;;;;;;67.63;63.53;;;;;;;11.80;92.84;97802.44;4946275;28;20018;-75
2023/04/29 02:23:34;;;;;;;68.13;63.42;;;;;;;11.62;93.82;97813.63;4949478;28;20054;-76
2023/04/29 02:26:00;;;;;;;69.90;64.78;;;;;;;11.67;93.18;97816.31;4952992;28;20070;-75
2023/04/29 02:28:26;;;;;;;65.03;60.67;;;;;;;11.52;93.68;97816.25;4949813;28;20041;-75
2023/04/29 02:30:51;;;;;;;66.10;61.40;;;;;;;11.55;93.63;97813.03;4962455;28;20105;-75
2023/04/29 02:33:17;;;;;;;68.88;64.22;;;;;;;11.67;92.89;97814.47;4965649;28;20205;-75
2023/04/29 02:35:43;;;;;;;66.95;62.10;;;;;;;11.41;94.32;97817.25;4951964;28;20142;-75
2023/04/29 02:38:08;;;;;;;67.47;62.88;;;;;;;11.50;93.66;97813.00;4949438;28;20064;-75
2023/04/29 02:40:43;;;;;;;66.13;61.47;;;;;;;11.55;93.41;97821.13;4971844;28;20023;-76
2023/04/29 02:43:08;;;;;;;65.50;61.05;;;;;;;11.61;93.18;97812.00;4950487;28;20469;-75
2023/04/29 02:45:34;;;;;;;64.32;59.55;;;;;;;11.57;93.31;97824.38;4946180;28;20066;-76
2023/04/29 02:48:00;;;;;;;67.78;63.28;;;;;;;11.63;92.91;97812.53;4932528;28;20030;-74
2023/04/29 02:50:25;;;;;;;68.40;63.95;;;;;;;11.34;94.12;97828.22;4952388;28;20504;-76
2023/04/29 02:52:51;;;;;;;65.63;60.47;;;;;;;11.54;93.26;97831.09;4967148;28;20448;-75
2023/04/29 02:55:17;;;;;;;68.40;63.00;;;;;;;11.22;94.44;97832.19;4946686;28;20026;-74
2023/04/29 02:57:43;;;;;;;69.53;64.57;;;;;;;11.45;92.82;97834.53;4932803;28;20493;-75
2023/04/29 03:00:09;;;;;;;71.13;64.25;;;;;;;11.29;94.10;97827.41;4966755;28;20065;-75
2023/04/29 03:02:34;;;;;;;69.45;63.25;;;;;;;11.28;93.83;97836.53;4955998;28;20031;-75
2023/04/29 03:05:00;;;;;;;69.00;64.13;;;;;;;11.44;92.94;97833.72;4952252;28;20374;-76
2023/04/29 03:07:26;;;;;;;69.57;64.10;;;;;;;11.39;93.45;97838.28;4950647;28;20476;-77
2023/04/29 03:09:52;;;;;;;71.15;65.68;;;;;;;11.16;94.42;97827.81;4946522;28;20026;-76
2023/04/29 03:12:17;;;;;;;70.38;65.10;;;;;;;11.35;93.41;97826.34;4932306;28;20405;-76
2023/04/29 03:14:45;;;;;;;72.93;66.88;;;;;;;11.18;94.18;97831.09;4936869;28;20046;-76
2023/04/29 03:17:12;;;;;;;67.47;62.53;;;;;;;11.16;94.80;97833.22;4935600;28;20038;-76
2023/04/29 03:19:37;;;;;;;71.57;66.35;;;;;;;11.26;93.94;97823.34;4953717;28;20029;-76
2023/04/29 03:22:03;;;;;;;76.85;70.28;;;;;;;11.01;94.21;97823.94;4935431;28;20480;-76
2023/04/29 03:24:28;;;;;;;80.32;72.70;;;;;;;10.94;94.64;97831.44;4945884;28;20030;-76
2023/04/29 03:26:54;;;;;;;70.50;65.32;;;;;;;11.07;94.58;97825.59;4947669;28;20094;-76
2023/04/29 03:29:20;;;;;;;72.30;66.15;;;;;;;11.00;94.57;97830.38;4968208;28;20061;-77
2023/04/29 03:31:45;;;;;;;69.53;64.43;;;;;;;11.21;93.19;97830.56;4950924;28;20030;-76
2023/04/29 03:34:13;;;;;;;69.18;63.63;;;;;;;10.95;93.97;97830.34;4946033;28;20073;-77
2023/04/29 03:36:41;;;;;;;66.50;61.45;;;;;;;11.30;92.80;97823.63;4932099;28;20037;-74
2023/04/29 03:39:07;;;;;;;75.80;67.68;;;;;;;11.09;93.70;97826.16;4951957;28;20398;-75
2023/04/29 03:41:32;;;;;;;70.88;65.43;;;;;;;11.22;93.26;97826.81;4950959;28;20045;-77
2023/04/29 03:43:59;;;;;;;73.32;64.53;;;;;;;11.06;93.80;97840.13;4942042;28;20478;-76
2023/04/29 03:46:26;;;;;;;72.93;64.85;;;;;;;10.95;94.54;97838.41;4947182;28;20031;-77
2023/04/29 03:48:54;;;;;;;67.70;62.20;;;;;;;11.21;93.41;97842.16;4961066;28;20069;-76
2023/04/29 03:51:21;;;;;;;72.25;66.38;;;;;;;11.28;92.68;97836.53;4966064;28;20034;-77
2023/04/29 03:53:50;;;;;;;69.82;64.45;;;;;;;11.41;92.08;97836.13;4939798;28;20034;-77
2023/04/29 03:56:17;;;;;;;73.93;67.28;;;;;;;11.39;92.08;97838.28;4940342;28;20412;-76
2023/04/29 03:58:42;;;;;;;74.53;67.50;;;;;;;11.17;92.61;97835.66;4949168;28;20022;-76
2023/04/29 04:01:07;;;;;;;72.55;67.07;;;;;;;11.42;91.70;97837.72;4947066;28;20062;-75
2023/04/29 04:03:42;;;;;;;73.15;67.03;;;;;;;11.20;92.35;97839.72;4965143;28;20042;-75
2023/04/29 04:06:08;;;;;;;71.35;66.35;;;;;;;11.16;92.61;97842.09;4964011;28;20038;-75
2023/04/29 04:08:33;;;;;;;71.90;66.20;;;;;;;11.15;92.05;97853.16;4949679;28;20026;-75
2023/04/29 04:11:28;;;;;;;69.53;64.47;;;;;;;11.05;92.77;97851.19;4972664;28;20101;-74
2023/04/29 04:13:59;;;;;;;66.78;61.70;;;;;;;11.06;92.29;97842.84;4965768;28;20082;-75
2023/04/29 04:16:24;;;;;;;73.80;67.00;;;;;;;11.03;92.35;97859.53;4955010;28;20031;-75
2023/04/29 04:18:50;;;;;;;69.47;64.70;;;;;;;11.16;92.23;97850.19;4958123;28;20041;-74
2023/04/29 04:21:16;;;;;;;70.90;64.72;;;;;;;11.11;92.07;97869.81;4960555;28;20042;-76
2023/04/29 04:23:46;;;;;;;66.85;62.33;;;;;;;11.36;91.54;97863.03;4961886;28;20030;-75
2023/04/29 04:26:17;;;;;;;67.25;62.42;;;;;;;11.31;91.40;97865.69;4964687;28;20125;-76
2023/04/29 04:28:57;;;;;;;71.03;65.97;;;;;;;11.26;91.47;97866.47;4946109;28;20030;-75
2023/04/29 04:31:32;;;;;;;72.40;66.50;;;;;;;11.16;91.74;97870.94;4938324;28;20038;-76
2023/04/29 04:33:58;;;;;;;69.10;63.85;;;;;;;11.04;92.19;97869.22;4956321;28;20042;-75
2023/04/29 04:36:24;;;;;;;71.32;66.35;;;;;;;11.17;91.96;97877.97;4967660;28;20026;-75
2023/04/29 04:38:50;;;;;;;74.25;68.45;;;;;;;11.11;91.73;97880.59;4948445;28;20038;-75
2023/04/29 04:41:15;;;;;;;71.72;65.82;;;;;;;11.04;91.90;97880.00;4951812;28;20057;-75
2023/04/29 04:43:44;;;;;;;67.78;63.17;;;;;;;11.22;91.50;97888.78;4954702;28;20381;-75
2023/04/29 04:46:18;;;;;;;71.68;65.55;;;;;;;11.03;92.22;97893.75;4953920;28;20038;-76
2023/04/29 04:48:54;;;;;;;66.10;61.20;;;;;;;11.13;92.25;97890.34;4962438;28;20068;-75
2023/04/29 04:51:20;;;;;;;70.05;64.18;;;;;;;10.94;92.68;97890.69;4977262;28;20034;-74
2023/04/29 04:53:46;;;;;;;66.60;61.85;;;;;;;11.17;91.98;97894.97;4947879;28;20030;-75
2023/04/29 04:56:18;;;;;;;68.38;63.53;;;;;;;11.38;91.27;97890.56;4949086;28;20117;-76
2023/04/29 04:58:45;;;;;;;68.72;63.95;;;;;;;11.30;90.85;97893.72;4938261;28;20115;-76
2023/04/29 05:01:10;;;;;;;68.45;63.95;;;;;;;11.47;90.67;97889.00;4941639;28;20042;-75
2023/04/29 05:03:35;;;;;;;66.82;62.47;;;;;;;11.56;89.83;97892.84;4935782;28;20030;-76
2023/04/29 05:06:01;;;;;;;69.35;64.97;;;;;;;11.40;90.29;97883.03;4959290;28;20026;-76
2023/04/29 05:08:27;;;;;;;69.32;64.75;;;;;;;11.52;89.66;97891.75;4935117;28;20077;-76
2023/04/29 05:10:55;;;;;;;70.70;65.90;;;;;;;11.38;90.66;97893.25;4948437;28;20053;-75
2023/04/29 05:13:20;;;;;;;70.82;66.15;;;;;;;11.33;91.32;97909.38;4957418;28;20172;-75
2023/04/29 05:15:46;;;;;;;68.82;64.57;;;;;;;11.56;90.03;97898.25;4974354;28;20030;-75
2023/04/29 05:18:16;;;;;;;68.75;64.35;;;;;;;11.47;90.25;97895.22;4971821;28;20058;-75
2023/04/29 05:20:42;;;;;;;71.65;66.78;;;;;;;11.40;90.72;97899.19;4958486;28;20489;-75
2023/04/29 05:23:08;;;;;;;70.07;65.45;;;;;;;11.54;90.13;97900.41;4948711;28;20045;-73
2023/04/29 05:25:37;;;;;;;70.30;65.90;;;;;;;11.68;89.80;97898.91;4948253;28;20038;-75
2023/04/29 05:28:04;;;;;;;70.88;66.18;;;;;;;11.57;89.81;97895.31;4953234;28;20034;-75
2023/04/29 05:30:31;;;;;;;70.65;66.25;;;;;;;11.47;91.04;97889.00;4969981;28;20365;-75
2023/04/29 05:32:57;;;;;;;69.95;65.57;;;;;;;11.50;89.93;97896.59;4925146;28;20026;-76
2023/04/29 05:35:23;;;;;;;71.93;67.82;;;;;;;11.71;89.48;97901.09;4954041;28;20030;-77
2023/04/29 05:37:48;;;;;;;71.75;67.38;;;;;;;11.57;88.88;97899.88;4964182;28;20142;-76
2023/04/29 05:40:23;;;;;;;71.55;67.15;;;;;;;11.56;89.67;97909.03;4963413;28;20445;-75
2023/04/29 05:42:50;;;;;;;73.10;68.45;;;;;;;11.38;90.60;97907.56;4951619;28;20059;-77
2023/04/29 05:45:15;;;;;;;76.03;71.47;;;;;;;11.68;89.92;97905.13;4952168;28;20066;-76
2023/04/29 05:47:41;;;;;;;74.72;70.07;;;;;;;11.83;89.00;97906.31;4951574;28;20034;-76
2023/04/29 05:50:07;;;;;;;73.40;68.90;;;;;;;11.57;89.75;97921.47;4969457;28;20060;-76
2023/04/29 05:52:32;;;;;;;71.50;67.32;;;;;;;11.73;89.53;97915.16;4965709;28;20034;-77
2023/04/29 05:54:57;;;;;;;74.75;70.07;;;;;;;11.58;90.32;97925.78;4980316;28;20453;-77
2023/04/29 05:57:23;;;;;;;71.40;67.20;;;;;;;11.76;89.63;97920.81;4935350;28;20081;-76
2023/04/29 05:59:48;;;;;;;70.68;66.57;;;;;;;11.94;88.87;97927.72;4951145;28;20071;-77
2023/04/29 06:02:13;;;;;;;69.50;65.35;;;;;;;11.82;88.58;97921.69;4948805;28;20034;-76
2023/04/29 06:04:40;;;;;;;72.07;67.72;;;;;;;11.91;88.48;97930.94;4962357;28;20042;-76
2023/04/29 06:07:38;;;;;;;74.22;69.68;;;;;;;11.67;89.41;97935.00;4956406;28;20042;-76
2023/04/29 06:10:30;;;;;;;72.57;68.28;;;;;;;11.80;89.85;97948.13;4957235;28;20053;-76
2023/04/29 06:12:56;;;;;;;74.97;70.38;;;;;;;11.83;88.80;97941.41;4991672;28;20034;-76
2023/04/29 06:15:22;;;;;;;74.07;69.45;;;;;;;11.66;89.88;97939.63;4949830;28;20023;-76
2023/04/29 06:17:47;;;;;;;71.57;67.57;;;;;;;11.95;88.35;97940.13;4953190;28;20081;-77
2023/04/29 06:20:13;;;;;;;72.53;68.35;;;;;;;11.94;87.86;97938.50;4965858;28;20074;-77
2023/04/29 06:22:38;;;;;;;73.00;68.68;;;;;;;11.87;88.69;97948.72;4973297;28;20489;-77
2023/04/29 06:25:04;;;;;;;73.28;68.93;;;;;;;11.72;89.49;97943.19;4949229;28;20026;-77
2023/04/29 06:27:43;;;;;;;73.40;69.07;;;;;;;11.67;89.05;97948.50;4960158;28;20034;-75
2023/04/29 06:30:09;;;;;;;75.25;70.75;;;;;;;11.91;89.27;97946.28;4950886;28;20093;-76
2023/04/29 06:32:34;;;;;;;73.10;68.68;;;;;;;12.03;88.33;97947.75;4979731;28;20105;-76
2023/04/29 06:35:00;;;;;;;77.15;72.55;;;;;;;11.72;89.68;97951.28;4964568;28;20081;-76
2023/04/29 06:37:44;;;;;;;73.13;68.80;;;;;;;12.13;88.61;97958.63;4986353;28;20765;-77
2023/04/29 06:40:27;;;;;;;72.47;68.07;;;;;;;11.85;89.00;97963.53;4955377;28;20455;-76
2023/04/29 06:43:25;;;;;;;72.30;67.78;;;;;;;12.03;88.81;97969.34;4982004;28;20031;-77
2023/04/29 06:46:10;;;;;;;71.03;66.93;;;;;;;11.96;88.15;97968.75;4973134;28;20053;-77
2023/04/29 06:48:44;;;;;;;71.88;67.75;;;;;;;11.92;88.91;97959.56;4968751;28;20035;-76
2023/04/29 06:51:10;;;;;;;68.35;64.38;;;;;;;12.24;87.46;97973.81;4966025;28;20067;-76
2023/04/29 06:53:38;;;;;;;69.40;65.22;;;;;;;12.27;87.58;97969.78;4979162;28;20025;-77
2023/04/29 06:56:04;;;;;;;68.53;64.75;;;;;;;12.42;85.81;97973.38;4948842;28;20031;-77
2023/04/29 06:58:30;;;;;;;67.25;63.60;;;;;;;12.37;85.43;97975.22;4985956;28;20027;-77
2023/04/29 07:00:55;;;;;;;63.72;59.97;;;;;;;12.19;85.57;97973.78;4939930;28;20030;-77
2023/04/29 07:03:21;;;;;;;64.82;61.38;;;;;;;12.34;86.41;97987.38;4969046;28;20027;-77
2023/04/29 07:05:46;;;;;;;63.17;59.47;;;;;;;12.61;85.12;97984.56;4950499;28;20077;-77
2023/04/29 07:08:12;;;;;;;63.35;59.85;;;;;;;12.63;85.38;97997.78;4962054;28;20165;-76
2023/04/29 07:10:38;;;;;;;66.63;63.13;;;;;;;12.52;85.24;97996.09;4964504;28;20189;-77
2023/04/29 07:13:03;;;;;;;60.53;57.20;;;;;;;12.46;84.06;98004.19;4936607;28;20077;-77
2023/04/29 07:15:29;;;;;;;65.50;61.88;;;;;;;12.56;85.31;98008.00;4949956;28;20030;-76
2023/04/29 07:17:55;;;;;;;63.38;59.97;;;;;;;12.27;84.49;98003.00;4946163;28;20037;-77
2023/04/29 07:20:21;;;;;;;60.50;57.10;;;;;;;12.38;84.37;98003.88;4932617;28;20026;-76
2023/04/29 07:22:46;;;;;;;59.03;55.55;;;;;;;12.43;84.46;98007.41;4954602;28;20509;-76
2023/04/29 07:25:12;;;;;;;55.47;52.35;;;;;;;12.35;84.65;98010.59;4953672;28;20046;-76
2023/04/29 07:27:37;;;;;;;57.80;54.78;;;;;;;12.30;85.42;98002.44;4965463;28;20018;-77
2023/04/29 07:30:03;;;;;;;61.08;57.78;;;;;;;12.40;85.18;98012.50;4991649;28;20494;-76
2023/04/29 07:32:32;;;;;;;63.13;59.47;;;;;;;12.26;85.65;98020.25;4956013;28;20042;-76
2023/04/29 07:35:01;;;;;;;62.88;59.42;;;;;;;12.32;85.21;98016.50;4943915;28;20108;-77
2023/04/29 07:37:26;;;;;;;61.47;58.08;;;;;;;12.23;85.16;98018.06;4972555;28;20528;-78
2023/04/29 07:39:52;;;;;;;63.22;59.63;;;;;;;12.24;85.30;98016.19;4954286;28;20092;-75
2023/04/29 07:42:17;;;;;;;63.75;60.25;;;;;;;12.28;84.99;98020.81;4949360;28;20023;-76
2023/04/29 07:44:44;;;;;;;66.70;63.05;;;;;;;12.13;85.94;98031.50;4951094;28;20046;-76
2023/04/29 07:47:10;;;;;;;65.25;61.55;;;;;;;12.23;85.78;98023.47;4955989;28;20114;-76
2023/04/29 07:49:35;;;;;;;65.97;62.38;;;;;;;12.15;86.05;98023.97;4953754;28;20124;-76
2023/04/29 07:52:01;;;;;;;68.35;64.45;;;;;;;12.20;86.12;98034.81;4965113;28;20497;-77
2023/04/29 07:54:26;;;;;;;68.45;64.65;;;;;;;12.51;84.96;98041.22;4967620;28;20042;-74
2023/04/29 07:56:52;;;;;;;65.47;61.90;;;;;;;12.74;84.55;98035.41;4975470;28;20065;-76
2023/04/29 07:59:18;;;;;;;60.83;57.42;;;;;;;12.99;83.40;98034.72;4936224;28;20530;-76
2023/04/29 08:01:44;;;;;;;56.97;53.65;;;;;;;13.09;83.00;98042.94;4963275;28;20082;-77
2023/04/29 08:04:09;;;;;;;52.10;49.10;;;;;;;13.10;81.48;98033.72;4978020;28;20038;-76
2023/04/29 08:06:45;;;;;;;50.08;47.28;;;;;;;13.07;81.72;98039.66;4965095;28;20076;-77
2023/04/29 08:09:11;;;;;;;38.50;36.28;;;;;;;13.12;80.69;98039.69;4961960;28;20480;-77
2023/04/29 08:11:40;;;;;;;48.72;46.10;;;;;;;13.09;82.89;98042.94;4964852;28;20117;-77
2023/04/29 08:14:05;;;;;;;52.95;49.95;;;;;;;13.08;82.22;98047.53;4965203;28;20070;-76
2023/04/29 08:16:30;;;;;;;50.55;47.78;;;;;;;13.10;82.30;98050.75;4955443;28;20448;-77
2023/04/29 08:18:56;;;;;;;45.10;42.60;;;;;;;13.22;81.11;98058.66;4954390;28;20488;-76
2023/04/29 08:21:22;;;;;;;42.03;39.72;;;;;;;13.07;81.44;98050.47;4948815;28;20034;-71
2023/04/29 08:23:47;;;;;;;37.35;35.17;;;;;;;13.13;80.09;98054.84;4982683;28;20035;-77
2023/04/29 08:26:13;;;;;;;30.55;28.75;;;;;;;13.02;79.79;98063.94;4960704;28;20026;-73
2023/04/29 08:28:39;;;;;;;27.70;25.80;;;;;;;13.17;78.87;98072.16;4977403;28;20078;-74
2023/04/29 08:31:06;;;;;;;29.38;27.58;;;;;;;13.40;79.16;98063.59;4977589;28;20033;-74
2023/04/29 08:33:35;;;;;;;32.13;30.10;;;;;;;13.34;79.41;98072.78;4948175;28;20031;-77
2023/04/29 08:36:02;;;;;;;29.98;28.08;;;;;;;13.34;78.88;98067.38;4955117;28;20030;-77
2023/04/29 08:38:28;;;;;;;30.33;28.42;;;;;;;13.40;78.65;98070.88;4938690;28;20034;-77
2023/04/29 08:40:55;;;;;;;23.80;22.30;;;;;;;13.35;78.14;98068.97;4932387;28;20026;-77
2023/04/29 08:43:21;;;;;;;25.45;23.85;;;;;;;13.64;77.87;98080.16;4932852;28;20031;-76
2023/04/29 08:45:47;;;;;;;22.10;20.55;;;;;;;13.55;77.10;98079.88;4988230;28;20061;-72
2023/04/29 08:48:13;;;;;;;26.48;24.77;;;;;;;13.51;77.68;98081.47;4954290;28;20136;-73
2023/04/29 08:50:40;;;;;;;23.85;22.35;;;;;;;13.65;76.90;98088.00;4971151;28;20031;-74
2023/04/29 08:53:09;;;;;;;26.48;24.67;;;;;;;13.49;78.05;98083.63;4974721;28;20081;-73
2023/04/29 08:55:45;;;;;;;24.00;22.42;;;;;;;13.56;77.28;98075.28;4935721;28;20057;-74
2023/04/29 08:58:12;;;;;;;23.15;21.58;;;;;;;13.72;76.96;98080.44;4945149;28;20504;-73
2023/04/29 09:00:38;;;;;;;22.30;20.80;;;;;;;13.44;76.47;98093.63;4974595;28;20396;-76
2023/04/29 09:03:33;;;;;;;21.02;19.52;;;;;;;13.55;76.46;98088.00;4959495;28;20477;-75
2023/04/29 09:06:00;;;;;;;19.27;17.88;;;;;;;13.47;76.22;98088.50;4955821;28;20058;-76
2023/04/29 09:08:26;;;;;;;25.23;23.65;;;;;;;13.90;76.66;98089.16;4963640;28;20029;-76
2023/04/29 09:10:51;;;;;;;18.75;17.35;;;;;;;13.64;75.62;98091.00;4964169;28;20043;-76
2023/04/29 09:13:27;;;;;;;17.08;15.77;;;;;;;13.79;75.89;98091.84;4970337;28;20106;-76
2023/04/29 09:15:53;;;;;;;18.23;16.87;;;;;;;14.00;73.57;98092.72;4970867;28;20070;-76
2023/04/29 09:18:41;;;;;;;14.25;13.15;;;;;;;14.21;75.77;98088.91;4969308;28;20085;-76
2023/04/29 09:21:32;;;;;;;14.40;13.30;;;;;;;14.24;73.90;98092.97;4970338;28;20481;-76
2023/04/29 09:24:02;;;;;;;14.35;13.25;;;;;;;13.90;74.92;98097.28;4966859;28;20042;-76
2023/04/29 09:26:40;;;;;;;13.00;11.90;;;;;;;13.74;74.09;98099.97;4932958;28;20089;-76
2023/04/29 09:29:14;;;;;;;13.75;12.65;;;;;;;13.99;74.05;98095.66;4963426;28;20081;-76
2023/04/29 09:31:41;;;;;;;14.05;12.95;;;;;;;14.10;74.04;98091.88;4966845;28;20182;-76
2023/04/29 09:34:06;;;;;;;16.35;14.95;;;;;;;14.26;74.30;98090.84;4944174;28;20034;-75
2023/04/29 09:36:45;;;;;;;15.68;14.50;;;;;;;14.06;73.71;98096.22;4950036;28;20031;-76
2023/04/29 09:39:13;;;;;;;13.23;12.07;;;;;;;14.00;73.33;98097.31;4969577;28;20035;-75
2023/04/29 09:41:51;;;;;;;11.40;10.40;;;;;;;13.94;72.74;98103.78;4952784;28;20539;-76
2023/04/29 09:44:17;;;;;;;16.55;15.23;;;;;;;14.15;74.18;98100.00;4961595;28;20624;-75
2023/04/29 09:46:42;;;;;;;12.85;11.75;;;;;;;14.42;73.40;98106.03;4974438;28;20126;-76
2023/04/29 09:49:31;;;;;;;11.73;10.75;;;;;;;14.25;71.74;98105.44;4953205;28;20073;-76
2023/04/29 09:52:01;;;;;;;9.23;8.25;;;;;;;14.22;71.47;98112.22;4970010;28;20477;-75
2023/04/29 09:54:28;;;;;;;9.18;8.27;;;;;;;14.40;70.71;98113.59;4951086;28;20108;-76
2023/04/29 09:56:55;;;;;;;9.57;8.15;;;;;;;14.19;71.69;98120.88;4963005;28;20472;-76
2023/04/29 09:59:21;;;;;;;8.68;7.88;;;;;;;14.09;72.25;98111.94;4949331;28;20427;-76
2023/04/29 10:01:48;;;;;;;10.90;8.75;;;;;;;13.81;71.99;98124.06;4956519;28;20113;-76
2023/04/29 10:04:16;;;;;;;8.70;7.70;;;;;;;13.80;72.47;98120.53;4948951;28;20082;-76
2023/04/29 10:06:43;;;;;;;10.57;9.68;;;;;;;13.91;73.08;98120.56;4954653;28;20041;-75
2023/04/29 10:09:14;;;;;;;8.52;7.72;;;;;;;13.74;71.94;98132.44;4969887;28;20500;-76
2023/04/29 10:11:40;;;;;;;7.82;6.88;;;;;;;13.73;71.12;98130.81;4977245;28;20038;-75
2023/04/29 10:14:06;;;;;;;9.02;6.75;;;;;;;13.65;71.18;98128.59;4963413;28;20045;-76
2023/04/29 10:16:33;;;;;;;8.15;6.75;;;;;;;13.59;70.73;98143.19;4936809;29;20078;-76
2023/04/29 10:19:03;;;;;;;7.47;6.65;;;;;;;13.69;69.54;98135.13;4978785;28;20583;-76
2023/04/29 10:21:32;;;;;;;7.40;6.32;;;;;;;13.57;70.96;98137.25;4963802;28;20585;-75
2023/04/29 10:23:58;;;;;;;6.68;6.00;;;;;;;13.55;70.54;98139.41;4962305;28;20014;-76
2023/04/29 10:26:28;;;;;;;7.50;6.68;;;;;;;13.68;70.53;98138.91;4952568;28;20077;-75
2023/04/29 10:28:59;;;;;;;7.78;7.07;;;;;;;13.58;71.39;98138.84;4954277;28;20044;-76
2023/04/29 10:31:29;;;;;;;8.27;7.47;;;;;;;13.68;71.48;98144.31;4948069;29;20142;-76
2023/04/29 10:33:56;;;;;;;10.77;9.93;;;;;;;13.79;73.46;98143.25;4968703;28;20031;-75
2023/04/29 10:36:22;;;;;;;12.95;12.00;;;;;;;14.02;73.93;98149.28;4964743;28;20472;-76
2023/04/29 10:38:52;;;;;;;12.25;11.25;;;;;;;13.47;74.65;98148.00;4946458;28;20039;-76
2023/04/29 10:41:24;;;;;;;11.95;11.05;;;;;;;13.51;74.38;98143.69;4943139;28;20129;-76
2023/04/29 10:43:55;;;;;;;12.45;11.65;;;;;;;13.43;74.98;98152.34;4959116;28;20107;-76
2023/04/29 10:46:22;;;;;;;12.82;11.82;;;;;;;13.11;75.55;98146.22;4966478;28;20046;-76
2023/04/29 10:48:49;;;;;;;13.77;12.85;;;;;;;13.11;75.63;98151.63;4957685;28;20035;-73
2023/04/29 10:51:44;;;;;;;15.75;14.68;;;;;;;12.97;76.18;98147.72;4950990;28;20048;-76
2023/04/29 10:54:24;;;;;;;13.38;12.55;;;;;;;13.24;75.55;98148.44;4960556;28;20042;-75
2023/04/29 10:56:51;;;;;;;13.75;12.95;;;;;;;13.16;75.66;98157.06;4959905;28;20432;-76
2023/04/29 10:59:20;;;;;;;14.30;13.40;;;;;;;12.91;75.99;98160.38;4964690;28;20027;-75
2023/04/29 11:01:50;;;;;;;16.42;15.55;;;;;;;12.70;77.04;98163.19;4981935;28;20121;-76
2023/04/29 11:04:17;;;;;;;17.02;16.15;;;;;;;12.67;77.58;98169.13;4955444;28;20031;-76
2023/04/29 11:06:54;;;;;;;15.80;14.95;;;;;;;12.30;77.48;98153.66;4972779;28;20448;-76
2023/04/29 11:09:30;;;;;;;26.85;25.35;;;;;;;12.67;77.98;98164.50;4945870;28;20039;-76
2023/04/29 11:11:57;;;;;;;;;;;;;;;12.60;79.23;98169.34;4967458;28;20033;-76
2023/04/29 11:14:41;;;;;;;22.15;20.95;;;;;;;12.61;76.77;98172.84;4968499;28;19910;-76
2023/04/29 11:17:16;;;;;;;18.83;17.77;;;;;;;12.25;77.50;98183.31;4983879;28;20440;-76
2023/04/29 11:19:49;;;;;;;14.18;13.48;;;;;;;12.16;76.60;98184.84;4956788;28;20473;-76
2023/04/29 11:22:17;;;;;;;16.13;15.20;;;;;;;12.12;77.02;98188.31;4956077;28;20053;-76
2023/04/29 11:24:55;;;;;;;17.08;16.13;;;;;;;12.21;77.57;98193.00;4972779;28;20031;-76
2023/04/29 11:27:24;;;;;;;13.88;12.93;;;;;;;12.32;76.78;98183.94;4970491;28;20042;-76